createdAt,value
2022-11-14T00:02:25.760Z,13.55
2022-11-14T00:05:15.585Z,13.90
2022-11-14T00:08:05.510Z,13.82
2022-11-14T00:10:54.043Z,12.98
2022-11-14T00:13:44.913Z,13.02
2022-11-14T00:16:31.654Z,12.52
2022-11-14T00:19:18.274Z,12.75
2022-11-14T00:22:07.575Z,11.95
2022-11-14T00:24:55.969Z,12.52
2022-11-14T00:27:43.932Z,13.10
2022-11-14T00:30:33.020Z,13.52
2022-11-14T00:33:21.160Z,13.52
2022-11-14T00:36:07.819Z,12.07
2022-11-14T00:38:55.581Z,12.98
2022-11-14T00:41:44.781Z,13.10
2022-11-14T00:44:33.470Z,12.88
2022-11-14T00:47:19.989Z,13.40
2022-11-14T00:50:08.051Z,12.05
2022-11-14T00:52:56.698Z,11.90
2022-11-14T00:55:48.836Z,11.35
2022-11-14T00:58:40.605Z,10.98
2022-11-14T01:01:27.719Z,10.77
2022-11-14T01:04:14.658Z,11.45
2022-11-14T01:07:01.697Z,10.40
2022-11-14T01:09:48.203Z,10.23
2022-11-14T01:12:35.419Z,9.90
2022-11-14T01:15:25.715Z,10.63
2022-11-14T01:18:13.789Z,9.88
2022-11-14T01:21:00.503Z,10.55
2022-11-14T01:23:53.897Z,9.88
2022-11-14T01:26:40.418Z,10.73
2022-11-14T01:29:27.335Z,9.88
2022-11-14T01:32:15.039Z,11.18
2022-11-14T01:35:02.188Z,11.30
2022-11-14T01:37:48.722Z,9.73
2022-11-14T01:40:35.698Z,11.13
2022-11-14T01:43:28.366Z,11.07
2022-11-14T01:46:19.063Z,11.10
2022-11-14T01:49:16.710Z,10.98
2022-11-14T01:52:06.723Z,10.38
2022-11-14T01:54:55.479Z,11.02
2022-11-14T01:57:47.061Z,11.55
2022-11-14T02:00:34.278Z,11.45
2022-11-14T02:03:21.814Z,11.55
2022-11-14T02:06:14.393Z,12.13
2022-11-14T02:09:04.204Z,11.88
2022-11-14T02:11:52.620Z,11.85
2022-11-14T02:14:40.299Z,11.95
2022-11-14T02:17:30.526Z,12.45
2022-11-14T02:20:22.468Z,13.02
2022-11-14T02:23:09.262Z,13.50
2022-11-14T02:25:56.244Z,13.63
2022-11-14T02:28:43.098Z,12.95
2022-11-14T02:31:30.013Z,15.27
2022-11-14T02:34:20.081Z,14.82
2022-11-14T02:37:08.508Z,15.13
2022-11-14T02:39:55.323Z,15.18
2022-11-14T02:42:42.351Z,15.13
2022-11-14T02:45:28.929Z,15.60
2022-11-14T02:48:16.158Z,16.15
2022-11-14T02:51:02.865Z,15.60
2022-11-14T02:53:50.903Z,15.45
2022-11-14T02:56:37.300Z,15.60
2022-11-14T02:59:24.316Z,15.07
2022-11-14T03:02:11.249Z,15.27
2022-11-14T03:04:58.210Z,14.68
2022-11-14T03:07:45.271Z,15.48
2022-11-14T03:10:33.730Z,14.95
2022-11-14T03:13:20.144Z,14.13
2022-11-14T03:16:08.070Z,13.98
2022-11-14T03:18:55.052Z,14.45
2022-11-14T03:21:41.674Z,14.25
2022-11-14T03:24:28.643Z,12.75
2022-11-14T03:27:16.242Z,12.75
2022-11-14T03:30:03.282Z,12.50
2022-11-14T03:32:50.210Z,11.85
2022-11-14T03:35:36.780Z,11.20
2022-11-14T03:38:23.891Z,11.23
2022-11-14T03:41:10.426Z,10.77
2022-11-14T03:43:58.839Z,10.07
2022-11-14T03:46:45.565Z,10.60
2022-11-14T03:49:32.219Z,9.98
2022-11-14T03:52:19.287Z,10.32
2022-11-14T03:55:06.498Z,11.20
2022-11-14T03:57:53.798Z,10.70
2022-11-14T04:00:42.172Z,10.23
2022-11-14T04:03:29.153Z,10.50
2022-11-14T04:06:16.337Z,10.13
2022-11-14T04:09:03.032Z,11.18
2022-11-14T04:11:50.038Z,11.68
2022-11-14T04:14:36.483Z,10.98
2022-11-14T04:17:24.991Z,9.82
2022-11-14T04:20:12.951Z,10.40
2022-11-14T04:22:59.734Z,9.68
2022-11-14T04:25:46.871Z,9.75
2022-11-14T04:28:33.701Z,9.90
2022-11-14T04:31:20.187Z,9.07
2022-11-14T04:34:08.533Z,9.02
2022-11-14T04:36:55.508Z,9.02
2022-11-14T04:39:42.487Z,9.35
2022-11-14T04:42:28.929Z,9.40
2022-11-14T04:45:16.385Z,9.68
2022-11-14T04:48:02.978Z,10.35
2022-11-14T04:50:51.203Z,10.43
2022-11-14T04:53:37.705Z,9.85
2022-11-14T04:56:25.500Z,9.95
2022-11-14T04:59:14.768Z,9.52
2022-11-14T05:02:04.715Z,9.88
2022-11-14T05:04:51.631Z,10.15
2022-11-14T05:07:39.806Z,8.82
2022-11-14T05:10:26.168Z,9.23
2022-11-14T05:13:13.814Z,8.75
2022-11-14T05:16:00.893Z,8.50
2022-11-14T05:18:47.707Z,9.20
2022-11-14T05:21:34.933Z,9.32
2022-11-14T05:24:23.129Z,8.73
2022-11-14T05:27:09.863Z,8.23
2022-11-14T05:29:56.698Z,8.27
2022-11-14T05:32:43.679Z,7.90
2022-11-14T05:35:30.757Z,7.78
2022-11-14T05:38:17.229Z,7.75
2022-11-14T05:41:08.686Z,7.30
2022-11-14T05:43:55.596Z,8.10
2022-11-14T05:46:42.533Z,8.00
2022-11-14T05:49:29.160Z,7.57
2022-11-14T05:52:16.093Z,7.55
2022-11-14T05:55:02.292Z,8.88
2022-11-14T05:57:50.846Z,8.38
2022-11-14T06:00:44.252Z,7.82
2022-11-14T06:03:37.142Z,7.53
2022-11-14T06:06:24.093Z,7.70
2022-11-14T06:09:10.951Z,8.15
2022-11-14T06:11:57.426Z,8.27
2022-11-14T06:14:45.297Z,8.18
2022-11-14T06:17:31.653Z,8.65
2022-11-14T06:20:18.708Z,8.85
2022-11-14T06:23:05.465Z,8.27
2022-11-14T06:25:52.309Z,7.82
2022-11-14T06:28:39.313Z,8.25
2022-11-14T06:31:28.039Z,8.30
2022-11-14T06:34:14.564Z,7.85
2022-11-14T06:37:01.420Z,8.45
2022-11-14T06:39:48.529Z,8.75
2022-11-14T06:42:35.487Z,8.50
2022-11-14T06:45:21.745Z,7.88
2022-11-14T06:48:09.549Z,8.05
2022-11-14T06:50:57.318Z,8.38
2022-11-14T06:53:44.460Z,8.38
2022-11-14T06:56:31.076Z,9.50
2022-11-14T06:59:17.568Z,8.35
2022-11-14T07:02:04.268Z,8.63
2022-11-14T07:04:52.590Z,8.93
2022-11-14T07:07:39.609Z,9.38
2022-11-14T07:10:26.798Z,9.15
2022-11-14T07:13:13.634Z,8.50
2022-11-14T07:16:01.156Z,9.00
2022-11-14T07:18:47.767Z,8.18
2022-11-14T07:21:36.146Z,7.65
2022-11-14T07:24:22.982Z,7.10
2022-11-14T07:27:12.003Z,7.32
2022-11-14T07:29:59.001Z,7.20
2022-11-14T07:32:45.650Z,5.82
2022-11-14T07:35:32.099Z,6.40
2022-11-14T07:38:20.260Z,6.03
2022-11-14T07:41:08.650Z,5.70
2022-11-14T07:43:55.187Z,5.80
2022-11-14T07:46:41.559Z,5.60
2022-11-14T07:49:28.428Z,6.03
2022-11-14T07:52:15.235Z,6.03
2022-11-14T07:55:03.458Z,5.07
2022-11-14T07:57:53.170Z,6.00
2022-11-14T08:00:39.943Z,5.53
2022-11-14T08:03:26.735Z,5.68
2022-11-14T08:06:15.522Z,6.13
2022-11-14T08:09:02.248Z,6.00
2022-11-14T08:11:50.763Z,5.35
2022-11-14T08:14:37.322Z,5.40
2022-11-14T08:17:24.484Z,5.45
2022-11-14T08:20:11.693Z,5.72
2022-11-14T08:23:04.262Z,5.60
2022-11-14T08:25:51.314Z,5.25
2022-11-14T08:28:39.683Z,5.47
2022-11-14T08:31:26.647Z,5.35
2022-11-14T08:34:13.503Z,5.05
2022-11-14T08:37:00.641Z,4.88
2022-11-14T08:39:47.612Z,4.45
2022-11-14T08:42:34.456Z,4.80
2022-11-14T08:45:22.658Z,5.15
2022-11-14T08:48:09.150Z,4.75
2022-11-14T08:50:56.157Z,4.60
2022-11-14T08:53:42.945Z,4.43
2022-11-14T08:56:29.800Z,5.63
2022-11-14T08:59:16.436Z,5.60
2022-11-14T09:02:04.293Z,5.45
2022-11-14T09:04:50.812Z,6.78
2022-11-14T09:07:37.845Z,6.70
2022-11-14T09:10:24.335Z,6.75
2022-11-14T09:13:11.255Z,6.57
2022-11-14T09:15:57.744Z,7.35
2022-11-14T09:18:45.748Z,7.70
2022-11-14T09:21:32.479Z,6.85
2022-11-14T09:24:19.573Z,6.90
2022-11-14T09:27:06.242Z,6.80
2022-11-14T09:29:53.034Z,7.20
2022-11-14T09:32:39.669Z,7.28
2022-11-14T09:35:27.987Z,7.68
2022-11-14T09:38:14.593Z,7.60
2022-11-14T09:41:11.593Z,6.70
2022-11-14T09:44:25.695Z,6.57
2022-11-14T09:47:20.859Z,6.03
2022-11-14T09:50:13.968Z,5.63
2022-11-14T09:53:06.606Z,5.13
2022-11-14T09:55:53.631Z,4.47
2022-11-14T09:58:42.331Z,5.35
2022-11-14T10:01:38.202Z,5.03
2022-11-14T10:04:33.073Z,5.63
2022-11-14T10:07:32.872Z,6.10
2022-11-14T10:10:37.300Z,6.68
2022-11-14T10:14:09.414Z,6.47
2022-11-14T10:17:10.680Z,5.95
2022-11-14T10:20:04.316Z,5.05
2022-11-14T10:23:10.319Z,5.80
2022-11-14T10:26:09.423Z,4.88
2022-11-14T10:29:28.330Z,4.30
2022-11-14T10:32:25.923Z,6.03
2022-11-14T10:35:18.022Z,6.63
2022-11-14T10:38:11.971Z,8.05
2022-11-14T10:41:02.431Z,7.90
2022-11-14T10:43:50.639Z,7.97
2022-11-14T10:46:41.422Z,8.27
2022-11-14T10:49:32.211Z,8.68
2022-11-14T10:52:23.379Z,8.85
2022-11-14T10:55:15.645Z,9.43
2022-11-14T10:58:09.635Z,9.05
2022-11-14T11:00:56.557Z,7.20
2022-11-14T11:03:44.527Z,7.97
2022-11-14T11:06:31.038Z,7.38
2022-11-14T11:09:42.313Z,6.45
2022-11-14T11:12:44.598Z,5.97
2022-11-14T11:15:40.735Z,5.40
2022-11-14T11:18:30.817Z,5.13
2022-11-14T11:21:19.955Z,5.47
2022-11-14T11:24:07.676Z,5.20
2022-11-14T11:27:14.181Z,5.28
2022-11-14T11:30:08.511Z,4.93
2022-11-14T11:32:56.851Z,4.68
2022-11-14T11:35:46.723Z,5.13
2022-11-14T11:38:34.981Z,4.80
2022-11-14T11:42:07.712Z,5.82
2022-11-14T11:44:39.059Z,8.07
2022-11-14T11:47:28.073Z,8.85
2022-11-14T11:50:18.788Z,8.27
2022-11-14T11:53:16.114Z,9.27
2022-11-14T11:56:08.084Z,9.18
2022-11-14T11:58:59.904Z,10.98
2022-11-14T12:01:46.639Z,12.05
2022-11-14T12:04:33.103Z,12.82
2022-11-14T12:07:26.401Z,17.10
2022-11-14T12:10:19.078Z,18.45
2022-11-14T12:13:33.180Z,18.08
2022-11-14T12:16:41.194Z,16.67
2022-11-14T12:20:01.154Z,14.60
2022-11-14T12:23:49.383Z,12.13
2022-11-14T12:27:06.333Z,12.02
2022-11-14T12:30:15.372Z,12.80
2022-11-14T12:33:05.487Z,13.98
2022-11-14T12:35:54.337Z,14.18
2022-11-14T12:38:50.269Z,17.42
2022-11-14T12:41:38.873Z,15.60
2022-11-14T12:44:37.946Z,16.88
2022-11-14T12:47:26.517Z,18.92
2022-11-14T12:50:41.608Z,19.98
2022-11-14T12:53:45.555Z,19.35
2022-11-14T12:57:09.897Z,19.05
2022-11-14T13:00:05.106Z,18.88
2022-11-14T13:03:15.640Z,18.33
2022-11-14T13:06:07.435Z,16.77
2022-11-14T13:09:14.186Z,17.42
2022-11-14T13:12:25.144Z,18.35
2022-11-14T13:15:48.906Z,19.10
2022-11-14T13:18:53.534Z,19.45
2022-11-14T13:22:27.176Z,18.08
2022-11-14T13:25:19.914Z,19.02
2022-11-14T13:28:40.157Z,17.83
2022-11-14T13:31:43.399Z,20.10
2022-11-14T13:34:37.471Z,19.20
2022-11-14T13:37:48.809Z,19.48
2022-11-14T13:40:44.968Z,18.85
2022-11-14T13:43:46.029Z,20.02
2022-11-14T13:46:51.570Z,20.73
2022-11-14T13:49:55.204Z,19.40
2022-11-14T13:52:44.663Z,19.20
2022-11-14T13:55:39.603Z,20.05
2022-11-14T13:58:40.425Z,19.95
2022-11-14T14:01:51.419Z,19.85
2022-11-14T14:04:50.823Z,19.92
2022-11-14T14:07:59.379Z,20.85
2022-11-14T14:10:59.851Z,17.98
2022-11-14T14:13:56.274Z,18.60
2022-11-14T14:16:50.907Z,17.08
2022-11-14T14:19:53.665Z,17.15
2022-11-14T14:22:48.409Z,15.95
2022-11-14T14:25:43.463Z,15.55
2022-11-14T14:28:41.912Z,14.00
2022-11-14T14:31:37.101Z,14.38
2022-11-14T14:34:28.112Z,13.23
2022-11-14T14:37:19.945Z,12.00
2022-11-14T14:40:11.121Z,10.77
2022-11-14T14:42:58.400Z,10.30
2022-11-14T14:45:52.357Z,10.80
2022-11-14T14:48:43.469Z,10.75
2022-11-14T14:51:31.817Z,11.07
2022-11-14T14:54:23.594Z,10.63
2022-11-14T14:57:22.566Z,10.10
2022-11-14T15:00:23.508Z,10.48
2022-11-14T15:03:12.581Z,9.93
2022-11-14T15:06:00.659Z,10.95
2022-11-14T15:08:47.895Z,10.30
2022-11-14T15:11:35.569Z,10.10
2022-11-14T15:14:24.958Z,10.48
2022-11-14T15:17:12.606Z,11.80
2022-11-14T15:20:00.848Z,11.07
2022-11-14T15:23:06.582Z,12.10
2022-11-14T15:26:03.051Z,11.73
2022-11-14T15:28:50.039Z,11.57
2022-11-14T15:31:37.836Z,11.38
2022-11-14T15:34:27.624Z,10.63
2022-11-14T15:37:25.426Z,11.00
2022-11-14T15:40:19.862Z,11.88
2022-11-14T15:43:36.946Z,11.73
2022-11-14T15:46:42.910Z,11.00
2022-11-14T15:49:29.779Z,10.52
2022-11-14T15:52:22.505Z,10.95
2022-11-14T15:55:15.711Z,11.52
2022-11-14T15:58:38.734Z,11.10
2022-11-14T16:01:15.864Z,11.90
2022-11-14T16:04:02.957Z,10.90
2022-11-14T16:06:49.706Z,11.93
2022-11-14T16:09:36.424Z,11.02
2022-11-14T16:12:24.646Z,10.60
2022-11-14T16:15:11.738Z,10.57
2022-11-14T16:17:58.754Z,11.30
2022-11-14T16:20:45.474Z,9.93
2022-11-14T16:23:32.629Z,9.63
2022-11-14T16:26:19.414Z,10.02
2022-11-14T16:29:07.849Z,10.60
2022-11-14T16:31:55.374Z,10.25
2022-11-14T16:34:42.422Z,10.25
2022-11-14T16:37:29.679Z,9.70
2022-11-14T16:40:19.401Z,10.35
2022-11-14T16:43:06.085Z,10.82
2022-11-14T16:45:53.858Z,10.70
2022-11-14T16:48:40.698Z,9.32
2022-11-14T16:51:57.255Z,9.75
2022-11-14T16:54:34.522Z,10.18
2022-11-14T16:57:21.282Z,10.70
2022-11-14T17:00:09.479Z,9.80
2022-11-14T17:02:58.081Z,10.75
2022-11-14T17:05:45.555Z,10.93
2022-11-14T17:08:32.415Z,11.13
2022-11-14T17:11:18.916Z,11.13
2022-11-14T17:14:05.318Z,11.00
2022-11-14T17:16:51.759Z,11.02
2022-11-14T17:19:45.811Z,11.95
2022-11-14T17:22:32.487Z,11.82
2022-11-14T17:25:19.532Z,12.35
2022-11-14T17:28:06.444Z,12.65
2022-11-14T17:30:53.097Z,13.63
2022-11-14T17:33:40.240Z,13.65
2022-11-14T17:36:30.293Z,12.50
2022-11-14T17:39:16.963Z,13.50
2022-11-14T17:42:04.011Z,13.30
2022-11-14T17:44:50.798Z,13.25
2022-11-14T17:47:37.737Z,13.50
2022-11-14T17:50:24.500Z,13.38
2022-11-14T17:53:12.743Z,13.23
2022-11-14T17:55:59.429Z,13.57
2022-11-14T17:58:47.212Z,14.43
2022-11-14T18:01:34.177Z,14.40
2022-11-14T18:04:21.253Z,13.73
2022-11-14T18:07:07.996Z,14.15
2022-11-14T18:10:02.149Z,15.00
2022-11-14T18:12:48.741Z,13.95
2022-11-14T18:15:35.721Z,14.13
2022-11-14T18:18:22.896Z,14.25
2022-11-14T18:21:10.844Z,14.13
2022-11-14T18:23:59.191Z,14.77
2022-11-14T18:26:47.537Z,14.23
2022-11-14T18:29:34.093Z,14.15
2022-11-14T18:32:21.045Z,14.05
2022-11-14T18:35:08.410Z,14.75
2022-11-14T18:37:55.335Z,13.35
2022-11-14T18:40:44.763Z,15.10
2022-11-14T18:43:34.263Z,14.48
2022-11-14T18:46:23.837Z,14.75
2022-11-14T18:49:11.471Z,14.00
2022-11-14T18:52:01.155Z,14.98
2022-11-14T18:54:52.539Z,14.27
2022-11-14T18:57:39.557Z,14.02
2022-11-14T19:00:27.746Z,15.25
2022-11-14T19:03:16.358Z,14.45
2022-11-14T19:06:03.379Z,14.73
2022-11-14T19:08:50.309Z,15.32
2022-11-14T19:11:54.915Z,14.75
2022-11-14T19:14:42.770Z,15.48
2022-11-14T19:17:30.650Z,15.70
2022-11-14T19:20:18.271Z,16.30
2022-11-14T19:23:04.984Z,14.88
2022-11-14T19:25:51.944Z,15.82
2022-11-14T19:28:39.024Z,16.25
2022-11-14T19:31:25.655Z,15.70
2022-11-14T19:34:13.652Z,16.77
2022-11-14T19:37:01.443Z,15.40
2022-11-14T19:39:48.070Z,16.70
2022-11-14T19:42:37.392Z,16.35
2022-11-14T19:45:24.170Z,17.48
2022-11-14T19:48:10.860Z,16.80
2022-11-14T19:51:03.397Z,17.50
2022-11-14T19:53:50.667Z,18.48
2022-11-14T19:56:37.829Z,17.30
2022-11-14T19:59:28.118Z,17.33
2022-11-14T20:02:15.491Z,18.10
2022-11-14T20:05:02.240Z,17.25
2022-11-14T20:07:49.880Z,17.67
2022-11-14T20:10:47.750Z,18.17
2022-11-14T20:13:36.502Z,17.83
2022-11-14T20:16:25.375Z,18.08
2022-11-14T20:19:13.661Z,17.85
2022-11-14T20:22:00.162Z,17.50
2022-11-14T20:24:48.467Z,18.95
2022-11-14T20:27:35.329Z,18.15
2022-11-14T20:30:22.375Z,18.52
2022-11-14T20:33:09.855Z,17.48
2022-11-14T20:35:57.094Z,19.02
2022-11-14T20:38:44.389Z,18.83
2022-11-14T20:41:32.856Z,19.02
2022-11-14T20:44:19.992Z,18.65
2022-11-14T20:47:10.767Z,17.88
2022-11-14T20:49:58.132Z,17.38
2022-11-14T20:52:47.321Z,17.35
2022-11-14T20:55:33.939Z,17.25
2022-11-14T20:58:22.157Z,17.10
2022-11-14T21:01:09.092Z,16.50
2022-11-14T21:03:55.836Z,16.45
2022-11-14T21:06:42.244Z,17.55
2022-11-14T21:09:28.675Z,16.83
2022-11-14T21:12:15.049Z,16.83
2022-11-14T21:15:03.163Z,17.02
2022-11-14T21:17:49.763Z,17.40
2022-11-14T21:20:36.717Z,16.48
2022-11-14T21:23:23.552Z,17.20
2022-11-14T21:26:13.288Z,17.23
2022-11-14T21:29:02.311Z,19.45
2022-11-14T21:31:50.525Z,19.45
2022-11-14T21:34:37.121Z,20.10
2022-11-14T21:37:23.355Z,18.63
2022-11-14T21:40:11.677Z,17.73
2022-11-14T21:42:58.386Z,17.00
2022-11-14T21:45:45.916Z,17.38
2022-11-14T21:48:41.128Z,17.98
2022-11-14T21:51:29.310Z,16.33
2022-11-14T21:54:16.331Z,17.45
2022-11-14T21:57:08.519Z,16.90
2022-11-14T21:59:56.699Z,16.58
2022-11-14T22:03:00.706Z,15.38
2022-11-14T22:05:48.816Z,15.00
2022-11-14T22:08:35.310Z,14.88
2022-11-14T22:11:22.304Z,15.45
2022-11-14T22:14:09.487Z,13.98
2022-11-14T22:16:56.432Z,14.32
2022-11-14T22:19:43.314Z,14.93
2022-11-14T22:22:31.616Z,14.30
2022-11-14T22:25:18.347Z,14.32
2022-11-14T22:28:05.556Z,13.27
2022-11-14T22:31:06.415Z,13.35
2022-11-14T22:33:54.759Z,13.60
2022-11-14T22:36:41.600Z,13.07
2022-11-14T22:39:29.478Z,13.82
2022-11-14T22:42:15.795Z,12.95
2022-11-14T22:45:02.807Z,12.75
2022-11-14T22:47:49.233Z,13.25
2022-11-14T22:50:36.192Z,13.20
2022-11-14T22:53:23.149Z,14.70
2022-11-14T22:56:12.971Z,14.05
2022-11-14T22:59:00.761Z,14.52
2022-11-14T23:01:47.499Z,14.23
2022-11-14T23:04:33.914Z,14.80
2022-11-14T23:07:20.838Z,14.55
2022-11-14T23:10:08.848Z,14.70
2022-11-14T23:12:59.915Z,15.43
